createdAt,value
2023-02-09T00:00:13.223Z,-0.58
2023-02-09T00:02:41.453Z,-0.58
2023-02-09T00:05:10.796Z,-0.62
2023-02-09T00:07:39.423Z,-0.73
2023-02-09T00:10:07.292Z,-0.88
2023-02-09T00:12:56.948Z,-0.46
2023-02-09T00:15:24.843Z,-0.76
2023-02-09T00:17:54.130Z,-0.87
2023-02-09T00:20:22.156Z,-1.10
2023-02-09T00:22:49.644Z,-0.94
2023-02-09T00:25:17.733Z,-0.90
2023-02-09T00:27:45.618Z,-1.04
2023-02-09T00:30:13.768Z,-0.95
2023-02-09T00:32:46.306Z,-1.00
2023-02-09T00:35:15.334Z,-1.12
2023-02-09T00:37:43.018Z,-1.04
2023-02-09T00:40:12.106Z,-1.07
2023-02-09T00:42:45.925Z,-1.04
2023-02-09T00:45:14.051Z,-1.23
2023-02-09T00:47:41.903Z,-1.19
2023-02-09T00:50:09.699Z,-1.30
2023-02-09T00:52:37.945Z,-1.07
2023-02-09T00:55:06.111Z,-1.07
2023-02-09T00:57:33.823Z,-0.97
2023-02-09T01:00:02.855Z,-1.19
2023-02-09T01:02:31.291Z,-0.98
2023-02-09T01:05:00.098Z,-1.19
2023-02-09T01:07:28.078Z,-1.28
2023-02-09T01:09:56.301Z,-1.19
2023-02-09T01:12:23.848Z,-1.24
2023-02-09T01:14:52.259Z,-1.38
2023-02-09T01:17:20.082Z,-1.37
2023-02-09T01:19:51.894Z,-1.32
2023-02-09T01:22:21.308Z,-1.32
2023-02-09T01:24:50.604Z,-1.45
2023-02-09T01:27:22.013Z,-1.46
2023-02-09T01:29:49.759Z,-1.45
2023-02-09T01:32:17.308Z,-1.57
2023-02-09T01:34:45.421Z,-1.33
2023-02-09T01:37:13.386Z,-1.33
2023-02-09T01:39:41.474Z,-1.61
2023-02-09T01:42:20.285Z,-1.55
2023-02-09T01:45:23.706Z,-1.78
2023-02-09T01:47:59.211Z,-1.65
2023-02-09T01:50:27.678Z,-1.59
2023-02-09T01:52:55.710Z,-1.62
2023-02-09T01:55:26.955Z,-1.46
2023-02-09T01:58:01.804Z,-1.62
2023-02-09T02:00:31.205Z,-1.69
2023-02-09T02:03:05.219Z,-1.80
2023-02-09T02:05:35.711Z,-1.77
2023-02-09T02:08:25.455Z,-1.74
2023-02-09T02:10:53.770Z,-1.72
2023-02-09T02:13:23.912Z,-1.74
2023-02-09T02:16:07.348Z,-1.95
2023-02-09T02:19:01.916Z,-2.04
2023-02-09T02:22:11.851Z,-2.00
2023-02-09T02:25:13.078Z,-1.75
2023-02-09T02:27:45.643Z,-1.98
2023-02-09T02:30:38.272Z,-2.15
2023-02-09T02:33:21.166Z,-2.19
2023-02-09T02:35:54.709Z,-2.18
2023-02-09T02:38:44.176Z,-2.04
2023-02-09T02:41:52.302Z,-2.14
2023-02-09T02:48:41.140Z,-2.22
2023-02-09T02:51:15.016Z,-2.09
2023-02-09T02:53:44.111Z,-2.09
2023-02-09T02:56:22.461Z,-2.13
2023-02-09T02:58:52.573Z,-2.24
2023-02-09T03:01:22.832Z,-2.12
2023-02-09T03:03:52.029Z,-2.15
2023-02-09T03:06:21.612Z,-2.02
2023-02-09T03:08:55.846Z,-1.85
2023-02-09T03:11:28.446Z,-2.14
2023-02-09T03:14:08.392Z,-2.17
2023-02-09T03:16:46.979Z,-2.18
2023-02-09T03:19:43.832Z,-2.28
2023-02-09T03:22:32.945Z,-2.43
2023-02-09T03:25:06.445Z,-2.53
2023-02-09T03:27:41.602Z,-2.39
2023-02-09T03:30:12.340Z,-2.26
2023-02-09T03:32:41.353Z,-2.26
2023-02-09T03:35:11.907Z,-2.10
2023-02-09T03:37:39.629Z,-2.13
2023-02-09T03:40:08.786Z,-2.08
2023-02-09T03:42:37.121Z,-2.17
2023-02-09T03:45:08.052Z,-2.17
2023-02-09T03:47:35.630Z,-2.17
2023-02-09T03:50:07.012Z,-2.12
2023-02-09T03:52:35.071Z,-2.06
2023-02-09T03:55:03.494Z,-2.27
2023-02-09T03:57:31.101Z,-2.44
2023-02-09T03:59:59.828Z,-2.25
2023-02-09T04:02:28.087Z,-2.25
2023-02-09T04:04:56.603Z,-2.26
2023-02-09T04:07:24.339Z,-2.44
2023-02-09T04:09:53.124Z,-2.55
2023-02-09T04:12:21.515Z,-2.48
2023-02-09T04:14:49.438Z,-2.37
2023-02-09T04:17:17.427Z,-2.59
2023-02-09T04:19:53.388Z,-2.64
2023-02-09T04:22:21.576Z,-2.54
2023-02-09T04:24:49.432Z,-2.39
2023-02-09T04:27:21.097Z,-2.80
2023-02-09T04:29:49.306Z,-2.69
2023-02-09T04:32:17.034Z,-2.67
2023-02-09T04:34:44.937Z,-2.92
2023-02-09T04:37:12.885Z,-2.66
2023-02-09T04:39:41.056Z,-2.81
2023-02-09T04:42:10.179Z,-2.69
2023-02-09T04:44:38.115Z,-2.67
2023-02-09T04:47:05.820Z,-2.55
2023-02-09T04:49:34.110Z,-2.74
2023-02-09T04:52:06.560Z,-2.76
2023-02-09T04:54:34.274Z,-2.66
2023-02-09T04:57:23.976Z,-2.55
2023-02-09T04:59:51.980Z,-2.61
2023-02-09T05:02:21.050Z,-2.65
2023-02-09T05:04:49.303Z,-2.76
2023-02-09T05:07:17.868Z,-2.77
2023-02-09T05:09:46.958Z,-2.74
2023-02-09T05:12:16.884Z,-2.69
2023-02-09T05:14:49.951Z,-2.71
2023-02-09T05:17:23.053Z,-2.87
2023-02-09T05:19:56.867Z,-2.82
2023-02-09T05:22:26.265Z,-2.73
2023-02-09T05:25:03.815Z,-3.11
2023-02-09T05:27:33.761Z,-2.99
2023-02-09T05:30:08.218Z,-3.19
2023-02-09T05:32:39.075Z,-2.99
2023-02-09T05:35:08.512Z,-2.98
2023-02-09T05:37:38.471Z,-2.84
2023-02-09T05:40:07.294Z,-3.08
2023-02-09T05:42:36.891Z,-3.06
2023-02-09T05:45:05.751Z,-2.97
2023-02-09T05:47:40.961Z,-2.99
2023-02-09T05:50:12.908Z,-2.98
2023-02-09T05:52:41.598Z,-3.01
2023-02-09T05:55:14.369Z,-3.24
2023-02-09T05:57:42.512Z,-3.15
2023-02-09T06:00:12.824Z,-3.13
2023-02-09T06:02:46.469Z,-2.96
2023-02-09T06:05:22.210Z,-2.91
2023-02-09T06:08:13.829Z,-2.89
2023-02-09T06:10:44.788Z,-3.02
2023-02-09T06:13:15.328Z,-2.95
2023-02-09T06:15:47.875Z,-3.17
2023-02-09T06:18:16.855Z,-3.09
2023-02-09T06:20:45.425Z,-3.14
2023-02-09T06:23:17.843Z,-2.98
2023-02-09T06:25:53.289Z,-2.93
2023-02-09T06:28:21.951Z,-2.95
2023-02-09T06:30:52.549Z,-2.76
2023-02-09T06:33:25.104Z,-2.86
2023-02-09T06:36:00.796Z,-2.76
2023-02-09T06:38:37.918Z,-2.72
2023-02-09T06:41:07.234Z,-2.79
2023-02-09T06:43:36.886Z,-2.80
2023-02-09T06:46:10.178Z,-2.97
2023-02-09T06:48:39.734Z,-2.61
2023-02-09T06:51:15.505Z,-2.49
2023-02-09T06:53:50.253Z,-2.58
2023-02-09T06:56:21.580Z,-2.21
2023-02-09T07:01:27.281Z,-2.30
2023-02-09T07:03:56.819Z,-2.40
2023-02-09T07:06:26.115Z,-2.20
2023-02-09T07:08:57.783Z,-2.13
2023-02-09T07:11:30.860Z,-1.92
2023-02-09T07:14:04.570Z,-1.41
2023-02-09T07:16:38.900Z,-1.56
2023-02-09T07:21:40.682Z,-1.82
2023-02-09T07:24:09.834Z,-1.67
2023-02-09T07:26:39.990Z,-1.56
2023-02-09T07:29:14.734Z,-1.50
2023-02-09T07:31:43.306Z,-1.30
2023-02-09T07:34:12.709Z,-1.22
2023-02-09T07:36:47.741Z,-1.12
2023-02-09T07:39:19.206Z,-1.08
2023-02-09T07:41:54.033Z,-0.99
2023-02-09T07:44:25.330Z,-0.73
2023-02-09T07:46:55.711Z,-0.62
2023-02-09T07:49:44.924Z,-0.39
2023-02-09T07:52:13.235Z,-0.28
2023-02-09T07:54:55.860Z,-0.05
2023-02-09T07:57:24.162Z,-0.13
2023-02-09T07:59:57.959Z,0.20
2023-02-09T08:02:36.436Z,0.23
2023-02-09T08:05:16.747Z,0.40
2023-02-09T08:07:49.762Z,0.40
2023-02-09T08:10:19.712Z,0.57
2023-02-09T08:13:00.527Z,0.72
2023-02-09T08:15:46.323Z,0.47
2023-02-09T08:18:19.251Z,0.54
2023-02-09T08:20:50.336Z,1.28
2023-02-09T08:23:27.221Z,1.48
2023-02-09T08:25:57.466Z,0.91
2023-02-09T08:28:43.291Z,1.26
2023-02-09T08:31:17.375Z,0.90
2023-02-09T08:33:51.155Z,1.60
2023-02-09T08:39:07.795Z,1.67
2023-02-09T08:41:39.773Z,1.67
2023-02-09T08:44:10.018Z,1.68
2023-02-09T08:46:38.804Z,1.72
2023-02-09T08:49:07.143Z,1.60
2023-02-09T08:51:35.821Z,1.90
2023-02-09T08:54:05.474Z,2.04
2023-02-09T08:56:38.860Z,2.30
2023-02-09T08:59:10.136Z,2.28
2023-02-09T09:01:47.480Z,2.53
2023-02-09T09:07:03.790Z,2.64
2023-02-09T09:09:36.811Z,2.99
2023-02-09T09:12:05.312Z,2.87
2023-02-09T09:17:17.366Z,3.22
2023-02-09T09:19:52.775Z,3.07
2023-02-09T09:22:35.096Z,3.48
2023-02-09T09:25:06.969Z,3.67
2023-02-09T09:27:43.923Z,3.65
2023-02-09T09:30:16.353Z,4.01
2023-02-09T09:32:45.872Z,3.86
2023-02-09T09:35:15.959Z,3.97
2023-02-09T09:37:47.771Z,4.34
2023-02-09T09:40:23.789Z,4.32
2023-02-09T09:42:55.949Z,4.29
2023-02-09T09:45:35.339Z,4.42
2023-02-09T09:48:14.879Z,4.61
2023-02-09T09:50:44.260Z,4.49
2023-02-09T09:53:38.775Z,4.90
2023-02-09T09:56:12.210Z,4.87
2023-02-09T09:58:50.266Z,4.73
2023-02-09T10:01:31.095Z,4.82
2023-02-09T10:04:11.804Z,4.66
2023-02-09T10:09:30.052Z,4.85
2023-02-09T10:12:08.724Z,4.99
2023-02-09T10:14:40.196Z,5.44
2023-02-09T10:17:17.248Z,5.76
2023-02-09T10:25:41.779Z,5.89
2023-02-09T10:28:25.998Z,5.87
2023-02-09T10:30:57.851Z,6.20
2023-02-09T10:33:39.955Z,6.43
2023-02-09T10:36:52.984Z,6.16
2023-02-09T10:39:25.063Z,6.44
2023-02-09T10:41:55.963Z,6.96
2023-02-09T10:47:21.851Z,6.51
2023-02-09T10:50:01.369Z,6.53
2023-02-09T10:52:36.990Z,6.58
2023-02-09T10:55:22.345Z,6.91
2023-02-09T10:57:53.687Z,7.22
2023-02-09T11:00:32.978Z,7.20
2023-02-09T11:03:04.797Z,6.74
2023-02-09T11:05:36.047Z,7.39
2023-02-09T11:08:25.772Z,7.46
2023-02-09T11:11:05.865Z,7.55
2023-02-09T11:13:35.853Z,7.62
2023-02-09T11:16:32.928Z,7.37
2023-02-09T11:19:12.955Z,7.31
2023-02-09T11:22:03.826Z,7.42
2023-02-09T11:25:14.794Z,6.89
2023-02-09T11:27:59.074Z,7.18
2023-02-09T11:30:40.346Z,7.65
2023-02-09T11:33:33.865Z,7.59
2023-02-09T11:36:30.517Z,7.47
2023-02-09T11:39:33.722Z,7.76
2023-02-09T11:42:27.352Z,7.54
2023-02-09T11:45:22.075Z,7.63
2023-02-09T11:48:20.769Z,8.04
2023-02-09T11:51:11.015Z,7.61
2023-02-09T11:54:07.704Z,7.46
2023-02-09T11:56:42.280Z,7.32
2023-02-09T11:59:24.448Z,8.06
2023-02-09T12:02:09.997Z,7.58
2023-02-09T12:04:55.595Z,8.03
2023-02-09T12:07:42.270Z,7.73
2023-02-09T12:10:30.560Z,7.55
2023-02-09T12:13:05.736Z,7.56
2023-02-09T12:15:42.596Z,7.30
2023-02-09T12:18:20.748Z,7.67
2023-02-09T12:21:08.801Z,7.69
2023-02-09T12:23:41.090Z,7.97
2023-02-09T12:26:41.050Z,7.83
2023-02-09T12:32:50.710Z,8.09
2023-02-09T12:35:39.019Z,8.31
2023-02-09T12:38:18.735Z,8.05
2023-02-09T12:41:07.218Z,8.25
2023-02-09T12:43:39.277Z,8.45
2023-02-09T12:46:24.793Z,8.44
2023-02-09T12:48:59.733Z,7.95
2023-02-09T12:51:56.708Z,7.55
2023-02-09T12:54:33.747Z,8.00
2023-02-09T12:57:16.591Z,8.49
2023-02-09T13:00:00.059Z,8.56
2023-02-09T13:02:50.824Z,8.09
2023-02-09T13:05:26.716Z,7.99
2023-02-09T13:08:06.748Z,8.02
2023-02-09T13:10:43.695Z,8.28
2023-02-09T13:13:39.724Z,7.88
2023-02-09T13:19:07.548Z,7.51
2023-02-09T13:21:53.693Z,7.62
2023-02-09T13:24:31.242Z,7.85
2023-02-09T13:27:13.773Z,7.70
2023-02-09T13:29:51.111Z,7.73
2023-02-09T13:32:43.141Z,7.90
2023-02-09T13:35:26.437Z,8.03
2023-02-09T13:38:01.757Z,8.31
2023-02-09T13:40:40.947Z,7.82
2023-02-09T13:43:24.379Z,7.63
2023-02-09T13:45:59.112Z,7.76
2023-02-09T13:48:38.842Z,7.74
2023-02-09T13:51:27.692Z,7.86
2023-02-09T13:56:39.586Z,8.00
2023-02-09T13:59:13.771Z,7.80
2023-02-09T14:01:49.757Z,7.44
2023-02-09T14:04:29.087Z,7.82
2023-02-09T14:09:57.889Z,7.55
2023-02-09T14:13:00.046Z,7.75
2023-02-09T14:16:00.762Z,7.51
2023-02-09T14:18:51.703Z,7.63
2023-02-09T14:21:26.766Z,7.52
2023-02-09T14:23:57.790Z,7.04
2023-02-09T14:26:53.063Z,7.25
2023-02-09T14:29:33.760Z,7.11
2023-02-09T14:32:33.551Z,6.88
2023-02-09T14:35:35.035Z,6.61
2023-02-09T14:38:40.170Z,6.85
2023-02-09T14:41:28.773Z,6.78
2023-02-09T14:44:05.368Z,7.04
2023-02-09T14:46:59.995Z,6.61
2023-02-09T14:52:15.616Z,6.28
2023-02-09T14:54:47.777Z,6.18
2023-02-09T14:57:24.930Z,6.12
2023-02-09T14:59:58.758Z,6.07
2023-02-09T15:05:23.742Z,5.97
2023-02-09T15:08:07.677Z,5.78
2023-02-09T15:10:38.763Z,5.98
2023-02-09T15:13:25.845Z,5.91
2023-02-09T15:16:04.919Z,5.65
2023-02-09T15:18:37.545Z,5.80
2023-02-09T15:21:06.725Z,6.01
2023-02-09T15:23:35.278Z,6.01
2023-02-09T15:26:20.342Z,5.83
2023-02-09T15:28:52.166Z,5.87
2023-02-09T15:31:30.030Z,5.82
2023-02-09T15:34:15.672Z,5.79
2023-02-09T15:36:48.280Z,5.87
2023-02-09T15:39:28.378Z,5.95
2023-02-09T15:42:08.748Z,5.95
2023-02-09T15:44:59.165Z,5.93
2023-02-09T15:47:53.771Z,5.93
2023-02-09T15:50:28.535Z,5.84
2023-02-09T15:52:58.664Z,5.75
2023-02-09T15:58:04.152Z,5.57
2023-02-09T16:00:37.781Z,5.17
2023-02-09T16:03:17.172Z,5.04
2023-02-09T16:06:03.889Z,4.90
2023-02-09T16:11:28.647Z,4.86
2023-02-09T16:14:02.181Z,4.88
2023-02-09T16:19:50.260Z,4.69
2023-02-09T16:22:22.673Z,4.51
2023-02-09T16:24:50.412Z,4.48
2023-02-09T16:27:25.355Z,4.52
2023-02-09T16:29:53.987Z,4.27
2023-02-09T16:32:23.992Z,4.22
2023-02-09T16:34:52.072Z,4.13
2023-02-09T16:37:38.000Z,3.96
2023-02-09T16:40:24.435Z,3.93
2023-02-09T16:42:52.818Z,3.87
2023-02-09T16:45:20.574Z,3.84
2023-02-09T16:47:54.259Z,3.82
2023-02-09T16:50:38.377Z,3.73
2023-02-09T16:53:17.709Z,3.71
2023-02-09T16:55:49.685Z,3.70
2023-02-09T16:58:18.768Z,3.60
2023-02-09T17:00:50.007Z,3.54
2023-02-09T17:03:23.534Z,3.46
2023-02-09T17:05:53.442Z,3.36
2023-02-09T17:08:31.679Z,3.30
2023-02-09T17:11:01.690Z,3.20
2023-02-09T17:13:30.938Z,3.25
2023-02-09T17:16:01.248Z,3.28
2023-02-09T17:18:33.290Z,3.10
2023-02-09T17:21:25.106Z,3.13
2023-02-09T17:23:54.585Z,3.11
2023-02-09T17:26:25.487Z,3.10
2023-02-09T17:28:53.844Z,2.97
2023-02-09T17:31:27.703Z,2.86
2023-02-09T17:33:58.033Z,2.65
2023-02-09T17:36:28.315Z,2.80
2023-02-09T17:38:58.566Z,2.81
2023-02-09T17:41:37.150Z,2.66
2023-02-09T17:44:26.522Z,2.56
2023-02-09T17:46:59.278Z,2.62
2023-02-09T17:49:27.709Z,2.55
2023-02-09T17:51:55.198Z,2.58
2023-02-09T17:54:22.771Z,2.52
2023-02-09T17:56:50.771Z,2.56
2023-02-09T17:59:20.240Z,2.53
2023-02-09T18:01:50.303Z,2.40
2023-02-09T18:04:21.100Z,2.43
2023-02-09T18:06:48.703Z,2.34
2023-02-09T18:09:16.885Z,2.48
2023-02-09T18:11:44.632Z,2.26
2023-02-09T18:14:13.571Z,2.27
2023-02-09T18:16:42.772Z,2.29
2023-02-09T18:19:12.483Z,2.14
2023-02-09T18:21:47.397Z,2.02
2023-02-09T18:24:15.996Z,2.14
2023-02-09T18:26:43.455Z,2.02
2023-02-09T18:29:11.007Z,2.21
2023-02-09T18:31:39.270Z,1.95
2023-02-09T18:34:07.926Z,2.03
2023-02-09T18:36:36.149Z,1.90
2023-02-09T18:39:04.730Z,1.82
2023-02-09T18:41:32.768Z,1.63
2023-02-09T18:44:02.819Z,1.90
2023-02-09T18:46:30.659Z,1.74
2023-02-09T18:48:58.892Z,1.65
2023-02-09T18:51:26.546Z,1.49
2023-02-09T18:53:54.511Z,1.63
2023-02-09T18:56:25.692Z,1.52
2023-02-09T18:58:53.311Z,1.82
2023-02-09T19:01:23.539Z,1.48
2023-02-09T19:03:53.170Z,1.28
2023-02-09T19:06:22.308Z,1.32
2023-02-09T19:08:51.623Z,1.33
2023-02-09T19:11:21.733Z,1.31
2023-02-09T19:14:09.134Z,1.25
2023-02-09T19:16:37.566Z,1.33
2023-02-09T19:19:05.725Z,1.30
2023-02-09T19:21:33.252Z,1.72
2023-02-09T19:24:08.758Z,1.72
2023-02-09T19:26:37.090Z,1.06
2023-02-09T19:29:06.315Z,0.89
2023-02-09T19:31:33.870Z,0.91
2023-02-09T19:34:01.832Z,0.76
2023-02-09T19:36:29.360Z,0.76
2023-02-09T19:38:57.453Z,0.82
2023-02-09T19:41:25.738Z,0.73
2023-02-09T19:43:57.564Z,0.85
2023-02-09T19:46:26.015Z,0.66
2023-02-09T19:48:53.934Z,0.82
2023-02-09T19:51:22.269Z,0.64
2023-02-09T19:53:50.717Z,0.64
2023-02-09T19:56:23.680Z,0.65
2023-02-09T19:58:52.019Z,0.51
2023-02-09T20:01:20.346Z,0.63
2023-02-09T20:03:49.648Z,0.58
2023-02-09T20:06:18.322Z,0.54
2023-02-09T20:08:48.605Z,0.42
2023-02-09T20:11:19.807Z,0.53
2023-02-09T20:13:53.906Z,0.52
2023-02-09T20:16:24.366Z,0.50
2023-02-09T20:18:56.055Z,0.44
2023-02-09T20:21:24.502Z,0.41
2023-02-09T20:23:56.119Z,0.30
2023-02-09T20:26:29.540Z,0.15
2023-02-09T20:28:57.918Z,0.13
2023-02-09T20:31:28.786Z,-0.01
2023-02-09T20:33:56.457Z,0.22
2023-02-09T20:36:25.609Z,0.18
2023-02-09T20:38:53.523Z,0.34
2023-02-09T20:41:21.170Z,0.20
2023-02-09T20:44:07.452Z,-0.10
2023-02-09T20:46:54.556Z,-0.07
2023-02-09T20:49:23.917Z,-0.12
2023-02-09T20:51:52.165Z,-0.10
2023-02-09T20:54:19.784Z,-0.11
2023-02-09T20:56:47.659Z,-0.36
2023-02-09T20:59:15.990Z,-0.06
2023-02-09T21:01:43.616Z,0.07
2023-02-09T21:04:11.237Z,-0.15
2023-02-09T21:06:39.365Z,-0.35
2023-02-09T21:09:08.144Z,-0.41
2023-02-09T21:11:36.009Z,-0.31
2023-02-09T21:14:04.386Z,-0.66
2023-02-09T21:16:32.348Z,-0.38
2023-02-09T21:19:00.492Z,-0.44
2023-02-09T21:21:29.471Z,-0.49
2023-02-09T21:23:57.029Z,-0.60
2023-02-09T21:26:24.565Z,-0.66
2023-02-09T21:28:56.637Z,-0.77
2023-02-09T21:31:26.909Z,-0.69
2023-02-09T21:33:54.900Z,-0.61
2023-02-09T21:36:22.774Z,-0.47
2023-02-09T21:38:50.459Z,-0.31
2023-02-09T21:41:40.738Z,-0.51
2023-02-09T21:44:10.090Z,-0.49
2023-02-09T21:46:37.866Z,-0.64
2023-02-09T21:49:05.571Z,-0.85
2023-02-09T21:51:33.308Z,-0.52
2023-02-09T21:54:01.310Z,-0.59
2023-02-09T21:56:28.806Z,-0.72
2023-02-09T21:58:56.281Z,-0.64
2023-02-09T22:01:24.739Z,-0.74
2023-02-09T22:03:57.205Z,-0.64
2023-02-09T22:06:25.685Z,-0.74
2023-02-09T22:08:53.796Z,-0.83
2023-02-09T22:11:21.414Z,-0.90
2023-02-09T22:13:52.925Z,-0.63
2023-02-09T22:16:22.086Z,-0.96
2023-02-09T22:18:50.059Z,-0.91
2023-02-09T22:21:44.598Z,-0.97
2023-02-09T22:24:24.292Z,-0.96
2023-02-09T22:27:15.516Z,-1.11
2023-02-09T22:29:54.726Z,-0.95
2023-02-09T22:32:45.553Z,-1.05
2023-02-09T22:35:24.730Z,-1.34
2023-02-09T22:38:15.727Z,-1.22
2023-02-09T22:40:54.732Z,-1.18
2023-02-09T22:43:45.486Z,-1.31
2023-02-09T22:46:26.812Z,-1.27
2023-02-09T22:49:20.228Z,-1.16
2023-02-09T22:51:59.718Z,-1.34
2023-02-09T22:54:50.740Z,-1.37
2023-02-09T22:57:29.702Z,-1.51
2023-02-09T23:00:07.749Z,-1.37
2023-02-09T23:02:36.193Z,-1.66
2023-02-09T23:05:04.698Z,-1.63
2023-02-09T23:07:32.392Z,-1.88
2023-02-09T23:09:59.965Z,-1.46
2023-02-09T23:12:28.235Z,-1.51
2023-02-09T23:14:55.629Z,-1.54
2023-02-09T23:17:23.380Z,-1.51
2023-02-09T23:19:51.143Z,-1.49
2023-02-09T23:22:18.746Z,-1.41
2023-02-09T23:24:46.397Z,-1.54
2023-02-09T23:27:14.590Z,-1.48
2023-02-09T23:29:42.022Z,-1.61
2023-02-09T23:32:09.609Z,-1.64
2023-02-09T23:34:37.733Z,-1.67
2023-02-09T23:37:13.553Z,-1.73
2023-02-09T23:39:46.700Z,-2.02
2023-02-09T23:42:14.120Z,-1.90
2023-02-09T23:44:43.961Z,-1.81
2023-02-09T23:47:12.048Z,-1.75
2023-02-09T23:49:39.902Z,-2.05
2023-02-09T23:52:07.735Z,-2.02
2023-02-09T23:54:35.550Z,-1.94
2023-02-09T23:57:03.351Z,-1.94
2023-02-09T23:59:31.242Z,-2.12
